Stations météo

réclame
Mon MeteoGroup
Hupsel aws, Pays-Bas (6283): Température de l'air & dewpoint: 17.10.2019 18:00:00 - 23.10.2019 18:00:00 (CEST)Hupsel aws, Pays-Bas (6283): Température de l'air 5cm: 17.10.2019 18:00:00 - 23.10.2019 18:00:00 (CEST)Hupsel aws, Pays-Bas (6283): Vitesse du vent & gusts: 17.10.2019 18:00:00 - 23.10.2019 18:00:00 (CEST)Hupsel aws, Pays-Bas (6283): Direction du vent: 17.10.2019 18:00:00 - 23.10.2019 18:00:00 (CEST)Hupsel aws, Pays-Bas (6283): Quantités de précipitations: 17.10.2019 18:00:00 - 23.10.2019 18:00:00 (CEST)
Date & Time tt [°C] td [°C] tt 5cm [°C] ff [km/h] ff [knt] fx [km/h] fx [knt] dd rr [mm]
23.10.2019 18:00:00 14,2 12,7 13,4 11 6 14 8 ENE 0,0
23.10.2019 17:00:00 15,6 12,9 15,4 11 6 22 12 ENE 0,0
23.10.2019 16:00:00 15,7 12,8 15,8 11 6 18 10 NE 0,0
23.10.2019 15:00:00 16,2 12,5 17,2 7 4 18 10 ENE 0,0
23.10.2019 14:00:00 15,0 11,7 16,6 14 8 18 10 E 0,0
23.10.2019 13:00:00 13,7 11,5 14,3 11 6 25 14 ENE 0,0
23.10.2019 12:00:00 12,6 10,8 12,8 14 8 22 12 ENE 0,0
23.10.2019 11:00:00 11,5 10,9 11,5 11 6 14 8 NE 0,0
23.10.2019 10:00:00 10,5 10,4 10,3 7 4 14 8 NNE 0,0
23.10.2019 09:00:00 10,1 9,9 9,9 7 4 11 6 NE 0,0
23.10.2019 08:00:00 9,9 9,7 9,7 7 4 14 8 NE 0,0
23.10.2019 07:00:00 9,9 9,7 9,8 11 6 14 8 ENE 0,0
23.10.2019 06:00:00 10,0 9,8 10,0 7 4 14 8 NE 0,0
23.10.2019 05:00:00 10,3 10,2 10,2 7 4 11 6 NNE 0,0
23.10.2019 04:00:00 9,9 9,7 9,6 4 2 7 4 NE 0,0
23.10.2019 03:00:00 9,6 9,4 9,2 4 2 4 2 NE 0,0
23.10.2019 02:00:00 9,9 9,8 9,2 4 2 4 2 E 0,0
23.10.2019 01:00:00 9,9 9,7 9,3 0 0 7 4 N 0,0
23.10.2019 00:00:00 8,6 8,5 6,4 4 2 4 2 SSW 0,0
22.10.2019 23:00:00 9,8 9,7 7,8 4 2 7 4 SW 0,0
22.10.2019 22:00:00 10,4 10,0 9,3 4 2 7 4 SSE 0,0
22.10.2019 21:00:00 11,1 10,3 9,9 7 4 11 6 S 0,0
22.10.2019 20:00:00 11,4 11,0 9,4 7 4 11 6 S 0,0
22.10.2019 19:00:00 10,6 10,4 8,5 4 2 7 4 S 0,0
22.10.2019 18:00:00 13,3 11,1 12,2 7 4 18 10 SSW 0,0
22.10.2019 17:00:00 15,1 11,9 15,7 7 4 18 10 SW 0,0
22.10.2019 16:00:00 14,6 12,3 15,4 7 4 18 10 SSW 0,0
22.10.2019 15:00:00 13,6 12,2 13,5 7 4 18 10 S 0,0
22.10.2019 14:00:00 13,4 12,2 13,5 7 4 14 8 S 0,0
22.10.2019 13:00:00 13,2 11,9 13,4 11 6 14 8 SSW 0,0
22.10.2019 12:00:00 12,9 11,5 13,0 7 4 22 12 SSW 0,0
22.10.2019 11:00:00 12,8 11,1 12,9 11 6 22 12 SSW 0,0
22.10.2019 10:00:00 12,0 11,0 11,8 7 4 14 8 SSW 0,0
22.10.2019 09:00:00 11,4 10,3 10,6 7 4 18 10 SSW 0,0
22.10.2019 08:00:00 11,9 10,2 11,5 7 4 18 10 SSW 0,0
22.10.2019 07:00:00 11,7 10,1 11,1 11 6 18 10 SSW 0,0
22.10.2019 06:00:00 12,3 10,1 11,8 11 6 22 12 SSW 0,0
22.10.2019 05:00:00 12,5 9,9 12,0 11 6 22 12 SSW 0,0
22.10.2019 04:00:00 12,4 9,9 11,8 7 4 18 10 SSW 0,0
22.10.2019 03:00:00 12,5 10,0 12,1 7 4 25 14 SSW 0,0
22.10.2019 02:00:00 12,8 9,7 12,2 11 6 29 16 SSW 0,0
22.10.2019 01:00:00 12,9 9,4 12,3 11 6 22 12 S 0,0
22.10.2019 00:00:00 13,1 9,4 - 11 6 22 12 S 0,0
21.10.2019 23:00:00 12,8 9,4 12,0 11 6 18 10 S 0,0
21.10.2019 22:00:00 12,7 9,3 11,9 7 4 14 8 S 0,0
21.10.2019 21:00:00 12,8 9,5 12,0 7 4 14 8 S 0,0
21.10.2019 20:00:00 12,7 9,8 11,9 7 4 14 8 S 0,0
21.10.2019 19:00:00 13,4 9,3 12,7 7 4 22 12 SSW 0,0
21.10.2019 18:00:00 13,6 9,3 13,0 11 6 22 12 SSW 0,0
21.10.2019 17:00:00 13,9 9,4 13,4 11 6 32 18 SSW -
21.10.2019 16:00:00 14,5 9,6 14,4 14 8 36 19 SW 0,0
21.10.2019 15:00:00 15,4 9,9 15,7 18 10 36 19 SSW 0,0
21.10.2019 14:00:00 16,0 10,8 15,7 14 8 36 19 SW 0,0
21.10.2019 13:00:00 16,6 12,9 16,5 14 8 25 14 SSW 0,0
21.10.2019 12:00:00 16,5 13,5 17,1 14 8 25 14 SSW 0,0
21.10.2019 11:00:00 13,9 13,7 14,4 7 4 14 8 SSE 0,0
21.10.2019 10:00:00 12,3 12,1 12,5 7 4 11 6 E 0,5
21.10.2019 09:00:00 11,8 11,7 11,8 4 2 11 6 E 0,0
21.10.2019 08:00:00 11,5 11,4 11,5 4 2 14 8 ENE 0,0
21.10.2019 07:00:00 11,4 11,3 11,3 11 6 18 10 E 0,0
21.10.2019 06:00:00 11,3 11,2 11,3 11 6 14 8 ENE 0,0
21.10.2019 05:00:00 11,4 11,2 11,2 7 4 18 10 ENE 0,0
21.10.2019 04:00:00 11,3 11,2 11,2 11 6 18 10 NE 0,0
21.10.2019 03:00:00 11,4 11,2 11,2 7 4 22 12 NE 0,0
21.10.2019 02:00:00 11,3 11,2 11,1 11 6 25 14 NE 0,0
21.10.2019 01:00:00 11,3 11,2 11,1 14 8 22 12 NNE 0,0
21.10.2019 00:00:00 11,2 11,1 11,1 11 6 22 12 NE 0,0
20.10.2019 23:00:00 11,2 11,0 11,0 11 6 22 12 NNE 0,0
20.10.2019 22:00:00 11,0 10,9 10,8 14 8 22 12 NNE 0,0
20.10.2019 21:00:00 10,8 10,7 10,6 14 8 18 10 NNE 0,1
20.10.2019 20:00:00 10,7 10,4 10,5 11 6 18 10 N 0,0
20.10.2019 19:00:00 10,9 10,4 10,6 11 6 18 10 NNE 0,0
20.10.2019 18:00:00 10,9 10,4 10,6 11 6 14 8 NNE 0,4
20.10.2019 17:00:00 11,3 10,8 11,2 7 4 14 8 NNE 0,3
20.10.2019 16:00:00 11,8 10,9 11,7 7 4 11 6 NE 1,0
20.10.2019 15:00:00 11,9 11,2 11,7 7 4 18 10 E 0,8
20.10.2019 14:00:00 12,3 12,2 12,3 7 4 11 6 E 1,1
20.10.2019 13:00:00 12,4 11,9 12,4 4 2 7 4 ENE 0,9
20.10.2019 12:00:00 12,2 11,8 12,2 4 2 4 2 SE 0,0
20.10.2019 11:00:00 11,8 11,6 11,6 4 2 7 4 SE 0,0
20.10.2019 10:00:00 11,0 10,9 10,7 4 2 7 4 SE 0,0
20.10.2019 09:00:00 10,2 10,1 9,6 4 2 11 6 SE 0,0
20.10.2019 08:00:00 10,2 10,1 9,6 7 4 11 6 SSE 0,0
20.10.2019 07:00:00 10,2 10,0 9,5 4 2 7 4 SSE 0,0
20.10.2019 06:00:00 10,0 9,8 9,2 7 4 11 6 SSE 0,0
20.10.2019 05:00:00 9,7 9,6 8,3 7 4 7 4 SSE 0,0
20.10.2019 04:00:00 9,6 9,5 8,8 4 2 7 4 SSE 0,0
20.10.2019 03:00:00 9,5 9,3 8,5 4 2 11 6 S 0,0
20.10.2019 02:00:00 9,8 9,7 8,8 7 4 14 8 S 0,0
20.10.2019 01:00:00 9,7 9,5 8,8 7 4 14 8 S 0,0
20.10.2019 00:00:00 9,0 8,8 7,5 7 4 11 6 SSE 0,0
19.10.2019 23:00:00 9,6 9,4 8,1 7 4 11 6 S 0,0
19.10.2019 22:00:00 10,2 9,9 8,9 7 4 14 8 S 0,0
19.10.2019 21:00:00 11,3 10,9 10,3 7 4 18 10 S 0,0
19.10.2019 20:00:00 11,6 11,2 10,7 7 4 14 8 S 0,0
19.10.2019 19:00:00 12,1 11,5 11,3 11 6 18 10 S 0,0
19.10.2019 18:00:00 12,5 11,7 12,0 11 6 22 12 S 0,0
19.10.2019 17:00:00 12,9 11,4 12,6 7 4 25 14 S 0,0
19.10.2019 16:00:00 13,1 11,1 12,9 11 6 29 16 S 0,0
19.10.2019 15:00:00 13,9 10,5 14,1 14 8 32 18 SSW 0,0
19.10.2019 14:00:00 13,9 11,7 13,9 18 10 36 19 S 0,0
19.10.2019 13:00:00 13,6 11,7 13,9 22 12 32 18 S 0,0
19.10.2019 12:00:00 12,9 11,4 13,1 22 12 36 19 S 0,0
19.10.2019 11:00:00 12,1 11,0 12,0 18 10 29 16 S 0,2
19.10.2019 10:00:00 11,6 10,4 11,2 11 6 25 14 SSE 0,2
19.10.2019 09:00:00 11,3 10,2 10,7 11 6 22 12 S 0,1
19.10.2019 08:00:00 11,3 9,7 10,6 14 8 29 16 S 0,1
19.10.2019 07:00:00 11,3 9,1 10,3 14 8 25 14 S 0,1
19.10.2019 06:00:00 10,7 9,2 9,9 14 8 29 16 S 0,6
19.10.2019 05:00:00 10,6 8,0 9,5 18 10 25 14 SSE 0,0
19.10.2019 04:00:00 10,5 7,7 9,2 14 8 29 16 S 0,0
19.10.2019 03:00:00 10,4 7,5 9,0 14 8 25 14 S 0,0
19.10.2019 02:00:00 10,4 7,5 9,1 14 8 25 14 S 0,0
19.10.2019 01:00:00 10,5 7,3 9,1 14 8 25 14 S 0,0
19.10.2019 00:00:00 11,0 7,4 9,6 14 8 29 16 S 0,0
18.10.2019 23:00:00 11,2 7,5 9,9 14 8 25 14 S 0,0
18.10.2019 22:00:00 11,2 7,7 10,0 18 10 29 16 S 0,0
18.10.2019 21:00:00 11,5 7,9 10,1 14 8 29 16 S 0,0
18.10.2019 20:00:00 11,2 7,3 10,0 14 8 32 18 S 0,0
18.10.2019 19:00:00 12,7 7,3 11,5 18 10 36 19 SSW 0,0
18.10.2019 18:00:00 13,1 7,5 11,9 14 8 40 21 SSW 0,0
18.10.2019 17:00:00 14,1 7,1 13,2 22 12 43 23 SW 0,0
18.10.2019 16:00:00 13,7 8,4 13,6 18 10 36 19 SSW 0,0
18.10.2019 15:00:00 13,1 8,7 13,1 25 14 47 25 SSW 0,0
18.10.2019 14:00:00 12,3 8,1 11,9 25 14 43 23 SSW 0,0
18.10.2019 13:00:00 12,0 9,7 11,3 18 10 50 27 SSW 2,5
18.10.2019 12:00:00 15,7 11,8 15,5 22 12 43 23 S 0,0
18.10.2019 11:00:00 15,5 12,4 16,0 22 12 32 18 S 0,0
18.10.2019 10:00:00 14,1 12,5 14,0 14 8 29 16 SSE 0,0
18.10.2019 09:00:00 12,8 12,0 12,0 14 8 25 14 S 0,0
18.10.2019 08:00:00 12,3 11,7 11,7 11 6 18 10 SSE 0,0
18.10.2019 07:00:00 12,4 12,0 11,8 11 6 25 14 SSE 0,0
18.10.2019 06:00:00 12,6 11,5 11,8 11 6 25 14 S 0,0
18.10.2019 05:00:00 12,6 11,6 11,8 11 6 22 12 S 0,0
18.10.2019 04:00:00 12,4 11,9 11,5 11 6 22 12 S 0,0
18.10.2019 03:00:00 12,2 12,1 11,3 11 6 18 10 S 0,0
18.10.2019 02:00:00 11,4 11,2 9,7 7 4 14 8 S 0,0
18.10.2019 01:00:00 11,0 10,8 9,9 7 4 11 6 S 0,0
18.10.2019 00:00:00 11,6 11,5 10,2 7 4 11 6 S 0,0
17.10.2019 23:00:00 12,4 12,3 11,7 7 4 14 8 SSW 0,0
17.10.2019 22:00:00 12,7 12,5 12,2 7 4 14 8 S 0,1
17.10.2019 21:00:00 12,9 12,7 12,8 7 4 11 6 SSW 1,3
17.10.2019 20:00:00 12,9 12,8 12,9 4 2 7 4 SSE 0,7
17.10.2019 19:00:00 12,9 12,7 12,8 4 2 18 10 SSE 0,4
17.10.2019 18:00:00 13,5 12,9 13,3 7 4 22 12 SSE 0,1

tt = Température de l'air
td = dewpoint
tt 5cm = Température de l'air 5cm
ff = Vitesse du vent
fx = gusts
dd = Direction du vent
rr = Quantités de précipitations

stations d'obs. à proximité